Saint Paul, MN

3:27 PM CDT on September 04, 2015 (GMT -0500)
Highland Park-Miss. Rvr Blvd & Cleveland | | Change Station
CLOSE
Current Station
Personal Weather Station
Location: St. Paul, MN
Elevation: 841 ft
Nearby Weather Stations

Elev 841 ft 44.90 °N, 93.19 °W | Updated 5 days ago

Partly Cloudy
Partly Cloudy
85 °F
Feels Like 88 °F
N
9
Wind Variable Wind from SSE
Gusts 14 mph

Today
High -- | Low -- °F
--% Chance of Precip.
Yesterday
High -- | Low -- °F
Precip. -- in
6:38 AM 7:44 PM
Waning Gibbous, 56% visible
Pressure 29.88 in
Visibility 10.0 miles
Clouds Few 12000 ft
Heat Index 88 °F
Dew Point 70 °F
Humidity 61%
Rainfall in
Snow Depth Not available.
UV 6 out of 12
Pollen 9.10 out of 12
Air Quality Not available.
Flu Activity Not available.
METAR KMSP 041953Z 14013G19KT 10SM FEW120 31/23 A2990 RMK AO2 SLP117 T03110228
Pressure 29.88 in
Visibility 10.0 miles
Clouds Few 12000 ft
Heat Index 88 °F
Dew Point 70 °F
Humidity 61%
Rainfall in
Snow Depth Not available.
UV 6 out of 12
Pollen 9.10 out of 12
Air Quality Not available.
Flu Activity Not available.
METAR KMSP 041953Z 14013G19KT 10SM FEW120 31/23 A2990 RMK AO2 SLP117 T03110228

10-Day Weather Forecast

×

Almanac

Astronomy

Sep. 04, 2015 Rise Set
Actual Time
Civil Twilight
Nautical Twilight
Astronomical Twilight
Moon
Length of Visible Light
Length of Day
Tomorrow will be .
, % of the Moon is Illuminated

Today's Extremes

State Highs State Lows

Community

WunderPhotos

Upload Photos

1,852,272 photos uploaded!

WunderBlogs® & News

Nearby

Air Quality

  Air Quality AQ Index Pollutant
Not available.

Snow Depth

Station Depth Elevation

Earthquake Activity

City Distance Mag. Time & Date
Minimum magnitude displayed is 2.5.

Coastal Water Temperatures

Place Temperature

Stations

Nearby Weather Stations

Station Location Temp. Windchill Dew Point Humidity Wind Precip. Elev Updated Type